八尾空港の過去48時間の天気

八尾空港 (Osaka/Yao)

現在時刻: 9/17 00:13 JST (9/16 15:13 UTC) 以下の時間は現地時間です。

過去48時間のMETAR気象情報
時間 風向 風速(m/s) 視程 気温(℃) 湿度(%) 気圧(hPa) 天気現象
16 19:00 5 10km以上 27 62 1004
16 18:00 5 10km以上 28 58 1004
16 17:00 6 10km以上 29 55 1003
16 16:00 6 10km以上 30 52 1003
16 15:00 7 10km以上 31 49 1002
16 14:00 6 10km以上 31 49 1002
16 13:00 5 10km以上 30 52 1002
16 12:00 4 10km以上 30 55 1002
16 11:00 4 10km以上 30 55 1003
16 10:00 5 10km以上 29 62 1003
16 09:00 5 10km以上 28 62 1004
16 08:00 不定 2 10km以上 27 70 1004
15 19:00 北北東 5 10km以上 29 55 1005
15 18:00 北東 3 10km以上 31 52 1004
15 17:00 北東 4 10km以上 32 46 1004
15 16:00 東北東 4 10km以上 32 46 1004
15 15:00 北北東 5 10km以上 33 41 1005
15 14:36 北北東 5 10km以上 34 41 1005
15 14:00 東北東 3 10km以上 32 56 1005
15 13:35 4 10km以上 33 53 1005
15 13:00 5 10km以上 31 52 1006
15 12:00 北東 4 10km以上 31 49 1007
15 11:00 北東 2 10km以上 30 55 1008
15 10:00 北北東 3 10km以上 29 58 1008
15 09:00 不定 1 10km以上 27 62 1009
15 08:00 不定 1 10km以上 26 70 1009
RJOY 161000Z 35010KT 9999 FEW030 SCT060 27/19 Q1004
RJOY 160900Z 35010KT 9999 FEW030 SCT060 28/19 Q1004
RJOY 160800Z 01011KT 330V050 9999 FEW030 SCT060 29/19 Q1003
RJOY 160700Z 36012KT 340V050 9999 FEW030 BKN050 30/19 Q1003
RJOY 160600Z 36013KT 330V030 9999 FEW035 SCT050 31/19 Q1002
RJOY 160500Z 36012KT 330V030 9999 FEW035 BKN050 31/19 Q1002
RJOY 160400Z 36010KT 330V040 9999 FEW030 SCT040 BKN060 30/19 Q1002
RJOY 160300Z 01008KT 320V050 9999 FEW030 SCT040 BKN050 30/20 Q1002
RJOY 160200Z 36007KT 300V030 9999 FEW030 SCT040 BKN050 30/20 Q1003
RJOY 160100Z 36009KT 330V030 9999 FEW030 BKN045 29/21 Q1003
RJOY 160000Z 36009KT 300V040 9999 FEW025 BKN035 28/20 Q1004
RJOY 152300Z VRB04KT 9999 FEW025 27/21 Q1004
RJOY 151000Z 02009KT 350V050 9999 FEW035 29/19 Q1005
RJOY 150900Z 05006KT 360V080 9999 FEW035 31/20 Q1004
RJOY 150800Z 05008KT 020V090 9999 FEW035 32/19 Q1004
RJOY 150700Z 06008KT 360V090 9999 FEW035 32/19 Q1004
RJOY 150600Z 02010KT 340V070 9999 FEW035 SCT050 33/18 Q1005
RJOY 150536Z 02010KT 340V060 9999 FEW035 SCT050 34/19 Q1005 RMK 1CU035 3SC050 A2968
RJOY 150500Z 06006KT 290V100 9999 FEW040 32/22 Q1005
RJOY 150435Z 08008KT 030V120 9999 FEW035 33/22 Q1005 RMK 1CU035 A2969
RJOY 150400Z 09009KT 050V150 9999 FEW035 31/20 Q1006
RJOY 150300Z 04008KT 350V090 9999 FEW035 31/19 Q1007
RJOY 150200Z 05003KT 340V120 9999 FEW030 30/20 Q1008
RJOY 150100Z 03005KT 340V100 9999 FEW030 29/20 Q1008
RJOY 150000Z VRB02KT CAVOK 27/19 Q1009
RJOY 142300Z VRB02KT CAVOK 26/20 Q1009